Time;durP1;ratioP1;P1;durP2;ratioP2;P2;SDS_P1;SDS_P2;PMS_P1;PMS_P2;Temp;Humidity;BMP_temperature;BMP_pressure;BME280_temperature;BME280_humidity;BME280_pressure;Samples;Min_cycle;Max_cycle;Signal;HPM_P1;HPM_P2
2022/01/19 00:02:40;;;;;;;15.75;7.55;;;;;;;4.63;84.14;101948.59;2927000;81;20975;-67
2022/01/19 00:06:42;;;;;;;11.95;8.25;;;;;;;4.62;84.31;101945.08;2926866;81;20932;-68
2022/01/19 00:10:45;;;;;;;13.30;9.73;;;;;;;4.62;84.28;101933.21;2890498;81;21483;-67
2022/01/19 00:14:46;;;;;;;16.17;10.72;;;;;;;4.63;84.49;101930.14;2962424;80;20991;-67
2022/01/19 00:18:48;;;;;;;11.68;8.08;;;;;;;4.64;84.46;101927.91;2962356;80;20998;-67
2022/01/19 00:22:50;;;;;;;13.00;7.53;;;;;;;4.60;84.74;101929.77;2962553;80;20962;-67
2022/01/19 00:26:52;;;;;;;18.98;8.05;;;;;;;4.55;85.23;101925.09;2962197;80;20977;-67
2022/01/19 00:30:54;;;;;;;9.20;7.15;;;;;;;4.55;85.47;101910.12;2961831;80;20962;-68
2022/01/19 00:34:56;;;;;;;9.25;7.28;;;;;;;4.57;85.72;101900.87;2962106;80;21009;-67
2022/01/19 00:38:57;;;;;;;11.40;6.28;;;;;;;4.64;85.76;101901.08;2962385;80;20954;-67
2022/01/19 00:42:59;;;;;;;12.58;5.90;;;;;;;4.67;85.89;101892.22;2962279;80;21018;-67
2022/01/19 00:47:01;;;;;;;11.33;6.78;;;;;;;4.66;85.93;101887.86;2962225;80;20993;-68
2022/01/19 00:51:03;;;;;;;12.10;7.25;;;;;;;4.61;86.21;101884.05;2962416;80;20998;-68
2022/01/19 00:55:08;;;;;;;15.48;8.23;;;;;;;4.63;86.22;101886.64;2962295;80;20970;-67
2022/01/19 00:59:10;;;;;;;13.60;8.63;;;;;;;4.69;86.05;101893.03;2962322;80;20959;-68
2022/01/19 01:03:12;;;;;;;19.17;8.33;;;;;;;4.71;86.03;101885.46;2962231;80;21569;-67
2022/01/19 01:07:13;;;;;;;10.60;9.00;;;;;;;4.79;85.78;101890.50;2962233;80;21033;-67
2022/01/19 01:11:17;;;;;;;16.60;9.85;;;;;;;4.85;85.45;101877.58;2996777;78;21009;-67
2022/01/19 01:16:18;;;;;;;10.95;7.42;;;;;;;4.85;85.14;101874.94;2908186;81;21483;-67
2022/01/19 01:19:27;;;;;;;14.40;8.23;;;;;;;4.79;85.29;101878.63;2946534;80;21006;-67
2022/01/19 01:23:32;;;;;;;12.70;8.78;;;;;;;4.75;85.52;101865.62;2907539;82;21038;-67
2022/01/19 01:27:34;;;;;;;10.87;6.67;;;;;;;4.71;85.80;101861.73;2962686;80;21046;-68
2022/01/19 01:31:35;;;;;;;8.23;6.97;;;;;;;4.71;86.02;101843.76;2928353;81;20971;-67
2022/01/19 01:35:38;;;;;;;11.25;7.70;;;;;;;4.77;86.09;101834.80;2928128;81;20955;-67
2022/01/19 01:39:40;;;;;;;13.48;8.50;;;;;;;4.86;85.80;101826.56;2928321;81;20971;-67
2022/01/19 01:43:43;;;;;;;10.53;6.90;;;;;;;4.92;85.48;101832.98;2908200;82;20967;-68
2022/01/19 01:47:50;;;;;;;13.98;7.80;;;;;;;4.98;85.20;101809.47;2962221;80;20975;-68
2022/01/19 01:56:16;;;;;;;16.07;7.83;;;;;;;4.94;85.02;101785.00;2928181;81;21479;-68
2022/01/19 02:00:22;;;;;;;12.23;7.00;;;;;;;4.89;85.25;101764.97;2928427;81;20951;-68
2022/01/19 02:04:25;;;;;;;;;;;;;;;4.91;85.43;101765.77;2930978;81;21031;-67
2022/01/19 02:08:35;;;;;;;11.65;8.25;;;;;;;4.86;85.61;101773.39;3004627;78;20188;-67
2022/01/19 02:25:05;;;;;;;11.22;7.92;;;;;;;4.87;85.88;101754.45;2918920;81;21506;-67
2022/01/19 02:29:27;;;;;;;12.35;7.12;;;;;;;4.90;85.70;101743.80;2973496;80;21458;-68
2022/01/19 02:41:45;;;;;;;7.42;5.03;;;;;;;4.98;85.41;101714.08;2970821;80;21008;-67
2022/01/19 02:50:03;;;;;;;9.95;6.28;;;;;;;5.02;85.21;101702.09;2919190;81;20986;-67
2022/01/19 02:54:05;;;;;;;12.65;6.12;;;;;;;4.99;85.28;101694.70;2973803;80;20988;-68
2022/01/19 02:58:07;;;;;;;7.03;5.22;;;;;;;5.02;85.33;101696.83;2973341;80;20978;-67
2022/01/19 03:08:43;;;;;;;9.75;5.22;;;;;;;5.08;85.15;101686.05;3024653;78;20927;-67
2022/01/19 03:10:35;;;;;;;6.70;5.45;;;;;;;5.06;85.05;101672.05;3020376;78;20940;-67
2022/01/19 03:14:39;;;;;;;8.88;5.97;;;;;;;5.06;84.98;101665.02;2919466;81;21002;-68
2022/01/19 03:18:41;;;;;;;11.00;6.20;;;;;;;5.12;84.96;101658.66;2973960;80;20972;-67
2022/01/19 03:22:52;;;;;;;7.55;5.47;;;;;;;5.22;84.75;101650.79;2974127;80;20985;-68
2022/01/19 03:26:47;;;;;;;6.72;3.72;;;;;;;5.26;84.05;101644.47;2972694;80;21002;-67
2022/01/19 03:30:48;;;;;;;13.53;4.50;;;;;;;5.28;83.87;101639.16;2974173;80;20943;-67
2022/01/19 03:34:50;;;;;;;7.67;4.55;;;;;;;5.28;83.62;101618.89;3024796;78;20935;-68
2022/01/19 03:38:52;;;;;;;8.43;4.53;;;;;;;5.29;83.45;101621.08;3024706;78;20955;-68
2022/01/19 03:42:54;;;;;;;8.43;5.05;;;;;;;5.24;83.36;101604.58;3024780;78;20907;-67
2022/01/19 03:46:58;;;;;;;8.53;5.12;;;;;;;5.18;83.47;101599.52;2919838;81;20962;-68
2022/01/19 03:50:59;;;;;;;5.33;4.25;;;;;;;5.21;83.45;101604.67;2974378;80;20985;-68
2022/01/19 03:55:01;;;;;;;7.15;3.72;;;;;;;5.25;83.33;101600.54;2974466;80;20951;-67
2022/01/19 03:59:03;;;;;;;3.80;3.30;;;;;;;5.20;83.23;101604.27;2973198;80;20986;-67
2022/01/19 04:03:06;;;;;;;5.87;2.77;;;;;;;5.18;83.22;101592.92;2970343;80;20953;-67
2022/01/19 04:07:09;;;;;;;4.35;3.12;;;;;;;5.13;83.26;101583.89;2919221;81;20928;-71
2022/01/19 04:11:10;;;;;;;8.68;4.53;;;;;;;5.10;83.34;101590.13;2910613;80;21050;-70
2022/01/19 04:15:16;;;;;;;6.25;4.03;;;;;;;5.05;83.52;101593.84;2960146;80;20986;-70
2022/01/19 04:23:33;;;;;;;5.30;3.75;;;;;;;5.05;83.68;101578.02;2928118;81;21432;-71
2022/01/19 04:27:35;;;;;;;8.48;5.42;;;;;;;5.05;83.90;101574.06;2927630;81;21023;-77
2022/01/19 04:31:36;;;;;;;6.60;4.30;;;;;;;5.06;84.07;101563.91;2927794;81;20967;-74
2022/01/19 04:35:49;;;;;;;14.98;5.30;;;;;;;5.00;84.21;101565.00;2927938;81;20955;-75
2022/01/19 04:48:38;;;;;;;6.40;5.08;;;;;;;5.03;83.99;101519.20;2927854;81;21054;-75
2022/01/19 05:05:18;;;;;;;13.07;5.17;;;;;;;5.20;83.37;101513.25;2927933;81;21031;-70
2022/01/19 05:13:36;;;;;;;6.60;4.72;;;;;;;5.06;83.06;101516.44;2932810;81;20983;-71
2022/01/19 05:17:38;;;;;;;6.78;5.00;;;;;;;4.98;83.38;101512.34;2932246;81;20983;-71
2022/01/19 05:21:40;;;;;;;7.67;4.67;;;;;;;4.91;83.43;101497.65;2932368;81;20998;-71
2022/01/19 05:25:42;;;;;;;9.80;5.72;;;;;;;4.84;83.33;101496.18;2932558;81;20908;-71
2022/01/19 05:29:43;;;;;;;10.82;7.30;;;;;;;4.81;83.45;101489.71;2932541;81;20994;-70
2022/01/19 05:33:45;;;;;;;9.60;7.08;;;;;;;4.74;83.43;101482.97;2932100;81;21471;-69
2022/01/19 05:37:46;;;;;;;10.05;6.87;;;;;;;4.65;83.14;101478.42;2932391;81;20959;-69
2022/01/19 05:41:48;;;;;;;12.05;6.85;;;;;;;4.59;82.70;101482.62;2932101;81;21050;-69
2022/01/19 05:45:50;;;;;;;12.00;7.67;;;;;;;4.50;82.51;101485.14;2931987;81;20975;-69
2022/01/19 05:49:52;;;;;;;11.78;6.65;;;;;;;4.37;82.85;101484.73;2931767;81;21503;-69
2022/01/19 05:53:53;;;;;;;12.58;7.20;;;;;;;4.27;82.98;101482.02;2932012;81;20982;-69
2022/01/19 05:57:55;;;;;;;12.70;6.83;;;;;;;4.16;82.99;101469.72;2931691;81;20927;-69
2022/01/19 06:01:58;;;;;;;11.53;9.58;;;;;;;4.01;83.76;101461.44;2931477;81;21526;-69
2022/01/19 06:06:00;;;;;;;12.78;8.15;;;;;;;3.91;84.06;101454.77;2931607;81;21002;-69
2022/01/19 06:10:08;;;;;;;13.30;8.60;;;;;;;3.86;84.39;101448.38;2930864;81;20999;-69
2022/01/19 06:14:05;;;;;;;11.15;7.40;;;;;;;3.81;84.36;101436.68;2927115;81;21084;-69
2022/01/19 06:18:07;;;;;;;11.30;7.00;;;;;;;3.71;84.60;101428.25;2928657;81;20952;-69
2022/01/19 06:22:09;;;;;;;13.18;7.53;;;;;;;3.67;84.36;101426.64;2928534;81;21014;-69
2022/01/19 06:26:10;;;;;;;9.90;7.35;;;;;;;3.61;84.40;101409.72;2928786;81;20932;-69
2022/01/19 06:30:13;;;;;;;12.33;7.72;;;;;;;3.54;84.67;101414.36;2929000;81;20974;-69
2022/01/19 06:34:15;;;;;;;13.35;6.90;;;;;;;3.53;84.25;101405.20;3003056;79;20964;-69
2022/01/19 06:38:17;;;;;;;12.07;7.62;;;;;;;3.56;84.32;101402.45;3003567;79;20975;-69
2022/01/19 06:42:18;;;;;;;11.22;8.40;;;;;;;3.54;84.48;101402.53;3003429;79;20926;-69
2022/01/19 06:46:20;;;;;;;14.43;9.08;;;;;;;3.56;84.74;101401.14;3003660;79;20892;-68
2022/01/19 06:50:23;;;;;;;12.15;8.70;;;;;;;3.53;84.38;101397.30;3003854;79;20924;-69
2022/01/19 06:54:24;;;;;;;13.03;9.83;;;;;;;3.49;84.09;101392.59;2962779;80;20967;-69
2022/01/19 06:58:28;;;;;;;19.85;11.30;;;;;;;3.43;83.92;101388.88;2929118;81;20975;-69
2022/01/19 07:02:30;;;;;;;14.98;10.75;;;;;;;3.37;83.71;101382.52;2929137;81;20959;-69
2022/01/19 07:06:32;;;;;;;15.88;11.20;;;;;;;3.29;83.75;101374.88;2929406;81;21526;-69
2022/01/19 07:10:34;;;;;;;15.65;11.10;;;;;;;3.22;83.83;101370.72;2929097;81;21042;-69
2022/01/19 07:14:36;;;;;;;14.68;10.40;;;;;;;3.11;84.08;101377.21;3003864;79;21074;-68
2022/01/19 07:18:37;;;;;;;16.42;11.55;;;;;;;3.11;84.14;101361.44;3003805;79;20991;-69
2022/01/19 07:22:39;;;;;;;18.50;14.15;;;;;;;3.08;84.34;101364.17;3003813;79;21456;-68
2022/01/19 07:26:41;;;;;;;18.23;12.85;;;;;;;3.14;84.10;101360.45;3003846;79;20941;-69
2022/01/19 07:30:42;;;;;;;18.23;14.10;;;;;;;3.12;84.31;101345.19;3003736;79;20972;-69
2022/01/19 07:34:44;;;;;;;22.87;13.50;;;;;;;3.11;84.37;101342.16;3003657;79;20951;-68
2022/01/19 07:38:46;;;;;;;16.95;12.80;;;;;;;3.11;84.42;101331.20;3003570;79;20947;-69
2022/01/19 07:42:48;;;;;;;18.65;11.73;;;;;;;3.08;84.47;101326.48;3003520;79;20920;-68
2022/01/19 07:46:51;;;;;;;20.62;12.33;;;;;;;3.06;84.51;101321.74;3003488;79;20936;-68
2022/01/19 07:50:52;;;;;;;23.80;12.33;;;;;;;3.06;84.55;101319.98;3003678;79;20967;-69
2022/01/19 07:54:54;;;;;;;17.37;13.83;;;;;;;3.09;84.27;101321.64;3003773;79;20932;-69
2022/01/19 07:58:56;;;;;;;21.10;12.90;;;;;;;3.16;84.13;101316.59;3003535;79;21471;-69
2022/01/19 08:02:58;;;;;;;18.57;13.08;;;;;;;3.16;84.15;101310.45;3003120;79;20925;-69
2022/01/19 08:07:00;;;;;;;23.18;15.03;;;;;;;3.26;83.37;101307.45;2963030;80;21007;-69
2022/01/19 08:11:01;;;;;;;27.48;16.70;;;;;;;3.33;83.45;101301.53;2928544;81;21087;-68
2022/01/19 08:15:04;;;;;;;32.20;23.12;;;;;;;3.53;82.84;101296.02;3003497;79;20908;-68
2022/01/19 08:19:06;;;;;;;36.88;21.62;;;;;;;3.61;82.68;101295.73;3003453;79;20928;-69
2022/01/19 08:23:08;;;;;;;31.70;19.48;;;;;;;3.76;81.94;101289.92;3002889;79;21023;-68
2022/01/19 08:27:10;;;;;;;20.17;13.90;;;;;;;3.82;80.67;101280.47;3003448;79;20909;-68
2022/01/19 08:31:12;;;;;;;22.52;15.60;;;;;;;3.92;80.26;101274.39;3003560;79;20944;-69
2022/01/19 08:35:13;;;;;;;33.65;15.15;;;;;;;4.00;79.85;101272.78;3003522;79;20909;-68
2022/01/19 08:39:15;;;;;;;21.10;14.18;;;;;;;4.02;79.51;101263.49;3003244;79;20890;-68
2022/01/19 08:43:17;;;;;;;28.05;14.83;;;;;;;4.11;79.46;101259.20;3002870;79;20900;-68
2022/01/19 08:47:19;;;;;;;15.50;12.90;;;;;;;4.11;79.42;101246.04;3003507;79;20932;-68
2022/01/19 08:51:21;;;;;;;20.10;11.65;;;;;;;4.10;79.54;101241.22;3003950;79;20936;-68
2022/01/19 08:55:22;;;;;;;19.98;13.03;;;;;;;4.20;79.25;101238.23;3003820;79;21448;-69
2022/01/19 08:59:24;;;;;;;18.55;12.03;;;;;;;4.21;79.53;101243.89;3003730;79;20920;-69
2022/01/19 09:03:26;;;;;;;18.27;13.30;;;;;;;4.25;79.30;101237.58;3003660;79;20940;-69
2022/01/19 09:07:27;;;;;;;26.80;15.90;;;;;;;4.39;79.48;101219.89;3003874;79;20948;-69
2022/01/19 09:11:29;;;;;;;19.10;13.18;;;;;;;4.51;79.75;101213.26;3011315;78;20968;-69
2022/01/19 09:15:31;;;;;;;20.97;13.70;;;;;;;4.54;79.85;101213.16;3024625;78;20979;-69
2022/01/19 09:19:33;;;;;;;15.38;9.25;;;;;;;4.57;79.76;101206.44;3024252;78;20916;-69
2022/01/19 09:23:35;;;;;;;19.05;11.93;;;;;;;4.56;80.07;101198.13;3024669;78;20944;-68
2022/01/19 09:27:40;;;;;;;18.27;11.55;;;;;;;4.69;80.17;101204.58;3024709;78;20928;-69
2022/01/19 09:31:43;;;;;;;18.62;12.53;;;;;;;4.84;80.04;101191.23;3025572;78;20923;-69
2022/01/19 09:36:04;;;;;;;23.18;14.07;;;;;;;4.96;79.04;101190.28;3024946;78;21027;-69
2022/01/19 09:39:55;;;;;;;28.92;21.20;;;;;;;5.06;79.82;101181.05;3022651;78;20983;-69
2022/01/19 09:43:56;;;;;;;35.73;20.27;;;;;;;5.32;78.24;101174.22;3024347;78;21033;-69
2022/01/19 09:47:58;;;;;;;15.08;11.97;;;;;;;5.52;77.23;101166.23;3025091;78;20994;-69
2022/01/19 09:52:00;;;;;;;15.15;11.57;;;;;;;5.65;76.25;101163.00;3025063;78;20944;-69
2022/01/19 09:56:03;;;;;;;32.95;25.80;;;;;;;5.81;76.00;101158.71;3025117;78;21483;-69
2022/01/19 10:00:06;;;;;;;19.75;14.07;;;;;;;6.03;75.76;101154.22;3025157;78;20963;-69
2022/01/19 10:04:19;;;;;;;36.88;23.27;;;;;;;6.03;74.92;101159.02;3025098;78;20979;-69
2022/01/19 10:08:34;;;;;;;214.20;115.77;;;;;;;6.16;74.56;101155.30;3025236;78;20936;-69
2022/01/19 10:17:06;;;;;;;38.90;22.75;;;;;;;6.27;73.47;101138.91;2986042;79;21845;-69
2022/01/19 10:21:15;;;;;;;44.67;24.87;;;;;;;6.23;73.54;101127.67;2986006;79;20933;-69
2022/01/19 10:25:16;;;;;;;33.40;19.85;;;;;;;6.28;72.93;101116.84;2985952;79;20992;-69
2022/01/19 10:29:22;;;;;;;27.27;17.98;;;;;;;6.32;73.65;101110.50;2986535;79;20924;-69
2022/01/19 10:33:23;;;;;;;31.70;19.40;;;;;;;6.38;73.22;101094.31;2965762;79;20944;-69
2022/01/19 10:37:28;;;;;;;27.93;16.17;;;;;;;6.41;74.05;101085.39;2986193;79;20882;-69
2022/01/19 10:41:30;;;;;;;21.55;14.18;;;;;;;6.39;73.68;101076.69;2985675;79;20960;-69
2022/01/19 10:45:32;;;;;;;18.23;12.80;;;;;;;6.53;72.55;101049.53;2986140;79;21458;-69
2022/01/19 10:49:55;;;;;;;16.97;12.35;;;;;;;6.51;72.48;101036.87;2985199;79;20980;-69
2022/01/19 10:54:12;;;;;;;22.37;12.82;;;;;;;6.48;71.23;101030.39;2985232;79;20921;-69
2022/01/19 10:58:16;;;;;;;27.37;15.72;;;;;;;6.45;71.99;101021.31;2985837;79;20904;-69
2022/01/19 11:02:19;;;;;;;21.17;15.10;;;;;;;6.22;72.28;101008.84;2985972;79;20944;-69
2022/01/19 11:06:21;;;;;;;17.23;11.85;;;;;;;6.38;72.95;100995.67;2985914;79;20940;-69
2022/01/19 11:10:22;;;;;;;20.40;14.20;;;;;;;6.23;73.56;100988.96;2985752;79;20964;-69
2022/01/19 11:14:26;;;;;;;24.75;16.32;;;;;;;6.32;73.83;100978.38;3002723;79;20948;-69
2022/01/19 11:18:30;;;;;;;27.10;15.65;;;;;;;6.43;73.25;100975.16;3004007;79;20925;-69
2022/01/19 11:22:55;;;;;;;43.42;20.68;;;;;;;6.39;73.90;100973.63;3004108;79;20916;-69
2022/01/19 11:26:58;;;;;;;39.65;21.77;;;;;;;6.50;73.70;100971.23;3003368;79;28343;-69
2022/01/19 11:31:11;;;;;;;33.92;20.00;;;;;;;6.64;73.82;100951.98;2963648;80;21023;-69
2022/01/19 11:35:34;;;;;;;39.98;23.60;;;;;;;6.70;73.87;100934.94;2929427;81;20995;-69
2022/01/19 11:39:36;;;;;;;40.43;22.58;;;;;;;6.88;74.00;100925.14;3003337;79;20966;-69
2022/01/19 11:43:51;;;;;;;24.18;16.70;;;;;;;6.93;73.78;100909.86;3004359;79;21003;-69
2022/01/19 11:48:13;;;;;;;15.23;10.65;;;;;;;7.05;72.86;100907.44;3004483;79;21484;-69
2022/01/19 11:52:19;;;;;;;26.87;19.32;;;;;;;6.97;71.84;100900.80;3002134;79;20996;-69
2022/01/19 11:56:20;;;;;;;33.60;20.75;;;;;;;7.07;71.17;100889.67;2963987;80;21030;-69
2022/01/19 12:00:32;;;;;;;17.40;12.18;;;;;;;7.18;71.65;100891.25;2929889;81;20947;-69
2022/01/19 12:04:37;;;;;;;21.40;12.03;;;;;;;7.22;70.25;100884.83;3003864;79;21003;-69
2022/01/19 12:08:39;;;;;;;22.05;14.85;;;;;;;7.34;70.76;100875.31;3004805;79;20928;-69
2022/01/19 12:12:56;;;;;;;14.30;11.20;;;;;;;7.46;70.05;100863.14;3014440;78;20967;-69
2022/01/19 12:17:14;;;;;;;17.95;10.28;;;;;;;7.35;69.31;100860.30;3025886;78;20936;-69
2022/01/19 12:21:03;;;;;;;16.17;10.45;;;;;;;7.17;68.94;100843.23;3022940;78;21452;-69
2022/01/19 12:25:11;;;;;;;14.68;11.65;;;;;;;7.34;69.29;100841.39;3025852;78;21428;-69
2022/01/19 12:29:16;;;;;;;14.43;11.27;;;;;;;7.37;68.92;100827.97;3025194;78;20955;-69
2022/01/19 12:33:17;;;;;;;12.80;9.78;;;;;;;7.31;68.70;100819.92;3019387;78;20963;-69
2022/01/19 12:37:36;;;;;;;12.88;11.57;;;;;;;7.28;68.02;100808.20;3025718;78;20960;-69
2022/01/19 12:42:01;;;;;;;16.80;9.98;;;;;;;7.35;68.48;100804.72;3026041;78;20948;-69
2022/01/19 12:46:07;;;;;;;17.45;12.18;;;;;;;7.30;67.76;100791.76;3026176;78;20980;-69
2022/01/19 12:50:14;;;;;;;21.25;12.60;;;;;;;7.24;67.96;100782.38;3026297;78;20943;-69
2022/01/19 12:54:21;;;;;;;21.70;15.20;;;;;;;7.13;68.81;100767.16;3026059;78;20923;-69
2022/01/19 12:58:33;;;;;;;17.07;13.80;;;;;;;7.07;69.81;100743.72;3025019;78;20991;-69
2022/01/19 13:02:35;;;;;;;19.45;12.58;;;;;;;6.89;70.15;100727.63;3026003;78;20971;-69
2022/01/19 13:06:37;;;;;;;28.65;16.62;;;;;;;6.80;69.48;100707.86;3026177;78;20924;-69
2022/01/19 13:10:47;;;;;;;19.27;12.40;;;;;;;6.81;70.36;100704.28;3025885;78;20974;-69
2022/01/19 13:14:45;;;;;;;47.53;31.55;;;;;;;6.85;69.62;100703.14;3026121;78;20976;-69
2022/01/19 13:18:46;;;;;;;15.98;13.62;;;;;;;6.70;68.94;100688.59;3025897;78;21503;-69
2022/01/19 13:22:52;;;;;;;23.87;14.33;;;;;;;6.73;69.40;100691.50;3026032;78;20967;-69
2022/01/19 13:27:01;;;;;;;47.15;26.10;;;;;;;6.67;69.27;100671.56;3026508;78;20944;-69
2022/01/19 13:31:21;;;;;;;25.20;17.15;;;;;;;6.54;70.41;100664.00;3025344;78;20924;-69
2022/01/19 13:35:26;;;;;;;26.02;16.35;;;;;;;6.55;70.44;100657.28;3025148;78;20983;-69
2022/01/19 13:39:31;;;;;;;26.68;18.70;;;;;;;6.52;71.05;100645.58;2975418;79;21002;-69
2022/01/19 13:43:39;;;;;;;28.67;19.92;;;;;;;6.58;72.03;100627.19;2972060;80;20957;-69
2022/01/19 13:48:20;;;;;;;23.47;17.30;;;;;;;6.63;71.59;100616.34;2923659;81;21014;-69
2022/01/19 13:52:09;;;;;;;23.57;18.23;;;;;;;6.51;71.32;100609.52;2920083;81;21476;-69
2022/01/19 13:56:17;;;;;;;27.98;18.40;;;;;;;6.54;71.59;100603.21;3025861;78;20947;-69
2022/01/19 14:00:20;;;;;;;28.95;18.50;;;;;;;6.54;72.13;100594.80;3024563;78;20978;-69
2022/01/19 14:04:23;;;;;;;26.48;19.57;;;;;;;6.46;71.73;100586.95;3025766;78;20932;-69
2022/01/19 14:08:32;;;;;;;29.55;20.80;;;;;;;6.60;71.66;100592.75;2975655;79;20927;-68
2022/01/19 14:12:33;;;;;;;31.90;23.30;;;;;;;6.60;71.84;100587.46;3025734;78;20983;-67
2022/01/19 14:16:39;;;;;;;22.82;19.12;;;;;;;6.62;72.12;100582.93;3026677;78;20931;-67
2022/01/19 14:20:41;;;;;;;32.20;22.65;;;;;;;6.70;72.15;100582.84;3025576;78;21475;-68
2022/01/19 14:24:52;;;;;;;41.45;24.37;;;;;;;6.78;71.77;100558.58;3024799;77;20948;-68
2022/01/19 14:29:14;;;;;;;34.67;17.87;;;;;;;6.77;71.45;100546.77;3004115;78;20979;-68
2022/01/19 14:33:16;;;;;;;23.73;18.90;;;;;;;6.77;70.63;100530.90;3012182;77;20979;-67
2022/01/19 14:37:19;;;;;;;26.25;17.77;;;;;;;6.70;70.29;100535.25;3025261;77;20976;-68
2022/01/19 14:41:30;;;;;;;22.87;16.42;;;;;;;6.69;69.63;100527.41;2972545;78;20985;-68
2022/01/19 14:45:36;;;;;;;22.65;17.75;;;;;;;6.68;69.64;100521.28;2971965;79;21114;-68
2022/01/19 14:49:35;;;;;;;30.85;20.97;;;;;;;6.65;69.41;100516.65;2971408;79;20980;-68
2022/01/19 14:53:36;;;;;;;46.40;28.30;;;;;;;6.64;69.11;100510.50;2980101;78;21016;-67
2022/01/19 14:57:38;;;;;;;41.75;27.65;;;;;;;6.57;69.84;100503.91;2954253;80;21019;-68
2022/01/19 15:01:44;;;;;;;49.75;31.65;;;;;;;6.50;69.85;100502.59;2921271;81;20999;-67
2022/01/19 15:05:45;;;;;;;45.65;34.20;;;;;;;6.33;70.42;100493.89;2920795;81;20975;-67
2022/01/19 15:09:47;;;;;;;30.35;23.27;;;;;;;6.23;70.76;100486.14;2924202;81;20951;-67
2022/01/19 15:13:49;;;;;;;27.27;20.40;;;;;;;6.14;70.59;100487.08;2969111;79;20990;-67
2022/01/19 15:17:56;;;;;;;23.60;19.87;;;;;;;6.07;70.64;100479.62;2975669;80;21033;-68
2022/01/19 15:21:58;;;;;;;29.32;22.62;;;;;;;5.99;70.74;100463.73;2975354;80;21005;-67
2022/01/19 15:26:00;;;;;;;33.45;22.93;;;;;;;5.79;71.24;100454.80;2975736;80;20985;-68
2022/01/19 15:30:07;;;;;;;30.40;22.52;;;;;;;5.67;71.04;100453.74;2975496;80;20970;-67
2022/01/19 15:34:09;;;;;;;30.15;23.18;;;;;;;5.62;70.98;100440.84;2924461;78;21021;-67
2022/01/19 15:38:11;;;;;;;44.27;31.48;;;;;;;5.56;70.79;100425.34;2963138;80;20989;-67
2022/01/19 15:42:14;;;;;;;54.00;37.05;;;;;;;5.31;71.49;100408.31;2975253;80;21009;-68
2022/01/19 15:46:16;;;;;;;44.27;31.45;;;;;;;5.02;72.52;100408.66;2975325;80;20971;-67
2022/01/19 15:50:18;;;;;;;160.70;92.75;;;;;;;4.86;73.04;100405.11;2975321;80;20999;-67
2022/01/19 15:54:20;;;;;;;381.32;202.00;;;;;;;4.60;74.22;100402.61;3025483;78;20943;-68
2022/01/19 15:58:23;;;;;;;186.60;97.90;;;;;;;4.47;74.28;100385.77;2975212;80;20971;-67
2022/01/19 16:02:25;;;;;;;98.60;60.98;;;;;;;4.37;74.29;100386.28;2974806;80;20940;-68
2022/01/19 16:06:26;;;;;;;135.80;69.12;;;;;;;4.18;74.84;100386.41;3024766;78;20974;-68
2022/01/19 16:10:28;;;;;;;71.53;41.25;;;;;;;4.02;75.18;100371.91;2973789;79;21494;-68
2022/01/19 16:14:30;;;;;;;120.90;72.72;;;;;;;3.79;76.02;100359.50;2974096;79;21476;-68
2022/01/19 16:18:31;;;;;;;53.28;32.85;;;;;;;3.59;76.61;100359.69;2974041;80;20987;-68
2022/01/19 16:26:49;;;;;;;31.45;18.80;;;;;;;3.61;76.52;100334.98;2973865;80;20947;-68
2022/01/19 16:30:52;;;;;;;22.45;18.23;;;;;;;3.56;76.47;100337.00;2973892;80;20978;-68
2022/01/19 16:34:54;;;;;;;29.75;19.65;;;;;;;3.53;76.70;100323.53;2974163;80;20951;-67
2022/01/19 16:38:56;;;;;;;22.55;17.07;;;;;;;3.49;76.79;100313.28;2973742;80;20951;-68
2022/01/19 16:43:00;;;;;;;26.52;15.88;;;;;;;3.52;76.61;100308.69;2952182;80;21058;-68
2022/01/19 16:47:02;;;;;;;24.32;14.70;;;;;;;3.54;76.31;100308.63;2961284;80;21029;-68
2022/01/19 16:51:05;;;;;;;18.95;12.73;;;;;;;3.47;76.57;100306.77;2972836;80;20982;-68
2022/01/19 16:55:08;;;;;;;19.50;14.50;;;;;;;3.50;76.41;100306.61;2972916;80;20999;-68
2022/01/19 16:59:10;;;;;;;22.17;14.68;;;;;;;3.40;77.14;100303.60;2972636;80;21531;-67
2022/01/19 17:03:12;;;;;;;17.48;12.82;;;;;;;3.32;78.14;100298.35;2973537;80;21042;-67
2022/01/19 17:07:13;;;;;;;16.62;13.43;;;;;;;3.21;78.39;100297.59;2973027;80;20983;-67
2022/01/19 17:11:15;;;;;;;22.07;15.60;;;;;;;3.14;78.48;100289.16;2972383;80;21014;-67
2022/01/19 17:15:37;;;;;;;19.90;14.90;;;;;;;3.11;78.74;100293.27;2972905;79;20983;-67
2022/01/19 17:19:26;;;;;;;26.82;16.27;;;;;;;3.10;79.01;100282.36;2969424;80;20983;-67
2022/01/19 17:23:27;;;;;;;21.12;14.60;;;;;;;3.14;78.39;100275.56;2973025;80;21522;-67
2022/01/19 17:27:28;;;;;;;19.60;14.93;;;;;;;3.08;78.45;100272.39;2973126;80;20943;-67
2022/01/19 17:31:31;;;;;;;22.40;15.93;;;;;;;3.04;78.69;100259.03;2973263;80;20954;-67
2022/01/19 17:35:32;;;;;;;17.57;14.93;;;;;;;3.03;78.48;100261.27;2973112;80;20911;-67
2022/01/19 17:39:34;;;;;;;23.73;15.63;;;;;;;3.03;78.43;100268.67;2972587;80;21042;-67
2022/01/19 17:43:36;;;;;;;23.25;18.27;;;;;;;2.96;78.56;100262.91;2972764;80;20966;-67
2022/01/19 17:47:51;;;;;;;26.80;19.40;;;;;;;2.95;78.66;100253.33;2972678;80;21022;-68
2022/01/19 17:51:45;;;;;;;26.85;18.98;;;;;;;2.97;78.57;100256.72;2969510;80;20987;-68
2022/01/19 17:55:46;;;;;;;26.57;17.00;;;;;;;3.01;78.45;100245.57;2971615;80;20953;-68
2022/01/19 17:59:53;;;;;;;27.15;17.95;;;;;;;2.99;78.49;100236.47;2972935;80;20979;-68
2022/01/19 18:03:53;;;;;;;35.52;20.50;;;;;;;2.97;78.64;100230.44;2972335;80;21392;-68
2022/01/19 18:07:55;;;;;;;25.32;18.40;;;;;;;2.95;78.68;100227.05;2972647;80;21015;-68
2022/01/19 18:11:56;;;;;;;32.28;22.00;;;;;;;2.95;78.69;100228.36;2973156;80;21507;-68
2022/01/19 18:15:58;;;;;;;30.60;19.52;;;;;;;2.93;78.96;100226.25;2972489;80;20987;-68
2022/01/19 18:19:59;;;;;;;29.45;20.32;;;;;;;2.89;79.22;100208.95;2972793;80;20959;-68
2022/01/19 18:24:01;;;;;;;26.80;20.20;;;;;;;2.87;79.50;100204.23;2972671;80;21034;-68
2022/01/19 18:28:03;;;;;;;32.78;20.30;;;;;;;2.80;79.79;100210.75;2972928;80;20978;-68
2022/01/19 18:32:06;;;;;;;33.95;22.65;;;;;;;2.78;79.81;100206.87;2972952;80;21525;-69
2022/01/19 18:36:09;;;;;;;28.12;20.57;;;;;;;2.75;79.86;100205.72;2973883;78;22057;-68
2022/01/19 18:40:16;;;;;;;41.70;23.00;;;;;;;2.70;79.92;100203.79;3006889;78;21441;-70
2022/01/19 18:44:16;;;;;;;33.55;22.73;;;;;;;2.66;79.70;100203.09;2972072;80;20984;-70
2022/01/19 18:48:18;;;;;;;37.23;20.43;;;;;;;2.68;79.46;100199.08;2972109;80;20999;-70
2022/01/19 18:52:23;;;;;;;27.82;20.23;;;;;;;2.69;79.51;100198.16;2972453;80;20987;-70
2022/01/19 18:56:23;;;;;;;28.42;17.50;;;;;;;2.69;79.32;100193.73;2972294;80;20963;-70
2022/01/19 19:00:27;;;;;;;30.15;21.15;;;;;;;2.66;79.04;100186.02;2972641;80;21477;-70
2022/01/19 19:04:30;;;;;;;25.25;17.12;;;;;;;2.65;78.95;100186.94;2972633;80;21031;-70
2022/01/19 19:08:32;;;;;;;27.85;17.02;;;;;;;2.74;78.71;100204.02;2972348;80;20980;-70
2022/01/19 19:12:35;;;;;;;23.98;17.20;;;;;;;2.79;78.74;100188.03;2923183;80;20994;-70
2022/01/19 19:16:37;;;;;;;21.70;15.60;;;;;;;2.76;78.74;100186.88;2919992;80;21010;-70
2022/01/19 19:20:40;;;;;;;35.35;22.15;;;;;;;2.80;78.62;100175.28;2920630;81;21021;-70
2022/01/19 19:24:43;;;;;;;27.37;18.70;;;;;;;2.83;78.60;100158.03;2920882;81;20994;-70
2022/01/19 19:28:45;;;;;;;23.80;18.57;;;;;;;2.79;78.75;100157.81;2920548;81;21006;-70
2022/01/19 19:32:48;;;;;;;26.75;17.92;;;;;;;2.77;78.90;100153.95;2920770;81;20974;-70
2022/01/19 19:36:54;;;;;;;25.62;17.75;;;;;;;2.70;79.55;100157.34;2920051;81;20998;-70
2022/01/19 19:40:56;;;;;;;23.70;17.52;;;;;;;2.71;79.61;100149.84;2949202;78;20955;-70
2022/01/19 19:45:01;;;;;;;25.30;18.10;;;;;;;2.65;79.72;100142.73;2972362;80;20931;-70
2022/01/19 19:49:04;;;;;;;33.00;19.90;;;;;;;2.69;79.78;100142.52;2972708;80;21014;-71
2022/01/19 19:53:07;;;;;;;28.40;17.70;;;;;;;2.79;79.49;100139.42;2972245;80;20951;-72
2022/01/19 19:57:09;;;;;;;26.02;19.02;;;;;;;2.80;79.06;100129.30;2971382;80;21022;-72
2022/01/19 20:01:12;;;;;;;28.42;18.98;;;;;;;2.76;78.80;100123.34;2971473;79;20967;-72